<?xml version='1.0' encoding='UTF-8'?>
<gpx version="1.1" creator="https://www.komoot.de" xmlns="http://www.topografix.com/GPX/1/1" xmlns:xsi="http://www.w3.org/2001/XMLSchema-instance" xsi:schemaLocation="http://www.topografix.com/GPX/1/1 http://www.topografix.com/GPX/1/1/gpx.xsd">
  <metadata>
    <name>GTW Moos 11 km</name>
    <author>
      <link href="https://www.komoot.de">
        <text>komoot</text>
        <type>text/html</type>
      </link>
    </author>
  </metadata>
  <trk>
    <name>GTW Moos 11 km</name>
    <trkseg>
      <trkpt lat="48.193352" lon="11.872251">
        <ele>505.903462</ele>
        <time>2022-10-18T12:03:35.818Z</time>
      </trkpt>
      <trkpt lat="48.193530" lon="11.872509">
        <ele>505.903462</ele>
        <time>2022-10-18T12:04:00.651Z</time>
      </trkpt>
      <trkpt lat="48.193701" lon="11.872737">
        <ele>505.903462</ele>
        <time>2022-10-18T12:04:23.625Z</time>
      </trkpt>
      <trkpt lat="48.193755" lon="11.872810">
        <ele>505.903462</ele>
        <time>2022-10-18T12:04:30.940Z</time>
      </trkpt>
      <trkpt lat="48.193881" lon="11.872979">
        <ele>505.903462</ele>
        <time>2022-10-18T12:04:47.907Z</time>
      </trkpt>
      <trkpt lat="48.193913" lon="11.872830">
        <ele>505.903462</ele>
        <time>2022-10-18T12:04:58.339Z</time>
      </trkpt>
      <trkpt lat="48.193946" lon="11.872679">
        <ele>505.891222</ele>
        <time>2022-10-18T12:05:09.026Z</time>
      </trkpt>
      <trkpt lat="48.194193" lon="11.872660">
        <ele>505.786731</ele>
        <time>2022-10-18T12:05:33.836Z</time>
      </trkpt>
      <trkpt lat="48.194617" lon="11.872439">
        <ele>505.597092</ele>
        <time>2022-10-18T12:06:18.835Z</time>
      </trkpt>
      <trkpt lat="48.194677" lon="11.872524">
        <ele>505.562226</ele>
        <time>2022-10-18T12:06:27.201Z</time>
      </trkpt>
      <trkpt lat="48.194735" lon="11.872606">
        <ele>505.528554</ele>
        <time>2022-10-18T12:06:35.240Z</time>
      </trkpt>
      <trkpt lat="48.194804" lon="11.872824">
        <ele>505.460589</ele>
        <time>2022-10-18T12:06:51.387Z</time>
      </trkpt>
      <trkpt lat="48.194889" lon="11.873221">
        <ele>505.343157</ele>
        <time>2022-10-18T12:07:19.445Z</time>
      </trkpt>
      <trkpt lat="48.194969" lon="11.873655">
        <ele>505.216343</ele>
        <time>2022-10-18T12:07:49.956Z</time>
      </trkpt>
      <trkpt lat="48.195029" lon="11.873741">
        <ele>505.181283</ele>
        <time>2022-10-18T12:07:58.447Z</time>
      </trkpt>
      <trkpt lat="48.194847" lon="11.874275">
        <ele>504.645417</ele>
        <time>2022-10-18T12:08:39.300Z</time>
      </trkpt>
      <trkpt lat="48.195339" lon="11.874666">
        <ele>503.752179</ele>
        <time>2022-10-18T12:09:36.249Z</time>
      </trkpt>
      <trkpt lat="48.195444" lon="11.874971">
        <ele>503.385074</ele>
        <time>2022-10-18T12:09:59.884Z</time>
      </trkpt>
      <trkpt lat="48.195480" lon="11.875021">
        <ele>503.306367</ele>
        <time>2022-10-18T12:10:04.908Z</time>
      </trkpt>
      <trkpt lat="48.195528" lon="11.875090">
        <ele>503.199713</ele>
        <time>2022-10-18T12:10:11.634Z</time>
      </trkpt>
      <trkpt lat="48.195499" lon="11.875397">
        <ele>502.868121</ele>
        <time>2022-10-18T12:10:33.590Z</time>
      </trkpt>
      <trkpt lat="48.195528" lon="11.875090">
        <ele>502.536529</ele>
        <time>2022-10-18T12:10:55.115Z</time>
      </trkpt>
      <trkpt lat="48.196203" lon="11.876221">
        <ele>500.089107</ele>
        <time>2022-10-18T12:12:42.598Z</time>
      </trkpt>
      <trkpt lat="48.196353" lon="11.876564">
        <ele>499.381633</ele>
        <time>2022-10-18T12:13:11.609Z</time>
      </trkpt>
      <trkpt lat="48.196562" lon="11.877144">
        <ele>498.244575</ele>
        <time>2022-10-18T12:13:57.678Z</time>
      </trkpt>
      <trkpt lat="48.196772" lon="11.878156">
        <ele>497.062344</ele>
        <time>2022-10-18T12:15:11.727Z</time>
      </trkpt>
      <trkpt lat="48.197044" lon="11.879426">
        <ele>496.012332</ele>
        <time>2022-10-18T12:16:42.985Z</time>
      </trkpt>
      <trkpt lat="48.197454" lon="11.880611">
        <ele>495.467721</ele>
        <time>2022-10-18T12:18:12.194Z</time>
      </trkpt>
      <trkpt lat="48.197435" lon="11.880719">
        <ele>495.465557</ele>
        <time>2022-10-18T12:18:19.666Z</time>
      </trkpt>
      <trkpt lat="48.197575" lon="11.881230">
        <ele>495.454851</ele>
        <time>2022-10-18T12:18:56.714Z</time>
      </trkpt>
      <trkpt lat="48.197608" lon="11.881392">
        <ele>495.451569</ele>
        <time>2022-10-18T12:19:08.106Z</time>
      </trkpt>
      <trkpt lat="48.197632" lon="11.881571">
        <ele>495.448030</ele>
        <time>2022-10-18T12:19:20.332Z</time>
      </trkpt>
      <trkpt lat="48.197728" lon="11.881744">
        <ele>495.443669</ele>
        <time>2022-10-18T12:19:35.354Z</time>
      </trkpt>
      <trkpt lat="48.197750" lon="11.881909">
        <ele>495.440408</ele>
        <time>2022-10-18T12:19:46.584Z</time>
      </trkpt>
      <trkpt lat="48.197751" lon="11.882637">
        <ele>495.423384</ele>
        <time>2022-10-18T12:20:35.233Z</time>
      </trkpt>
      <trkpt lat="48.197750" lon="11.882697">
        <ele>495.420446</ele>
        <time>2022-10-18T12:20:39.324Z</time>
      </trkpt>
      <trkpt lat="48.197760" lon="11.884675">
        <ele>495.323611</ele>
        <time>2022-10-18T12:22:51.796Z</time>
      </trkpt>
      <trkpt lat="48.197779" lon="11.885194">
        <ele>495.298165</ele>
        <time>2022-10-18T12:23:26.476Z</time>
      </trkpt>
      <trkpt lat="48.197745" lon="11.885362">
        <ele>495.351283</ele>
        <time>2022-10-18T12:23:38.206Z</time>
      </trkpt>
      <trkpt lat="48.197758" lon="11.885657">
        <ele>495.473298</ele>
        <time>2022-10-18T12:23:58.138Z</time>
      </trkpt>
      <trkpt lat="48.197783" lon="11.886126">
        <ele>495.667477</ele>
        <time>2022-10-18T12:24:29.917Z</time>
      </trkpt>
      <trkpt lat="48.196643" lon="11.886328">
        <ele>496.378229</ele>
        <time>2022-10-18T12:26:28.095Z</time>
      </trkpt>
      <trkpt lat="48.195886" lon="11.886457">
        <ele>497.300200</ele>
        <time>2022-10-18T12:27:47.315Z</time>
      </trkpt>
      <trkpt lat="48.195231" lon="11.886601">
        <ele>498.129342</ele>
        <time>2022-10-18T12:28:56.620Z</time>
      </trkpt>
      <trkpt lat="48.194904" lon="11.886648">
        <ele>498.540781</ele>
        <time>2022-10-18T12:29:31.302Z</time>
      </trkpt>
      <trkpt lat="48.193740" lon="11.886829">
        <ele>499.968482</ele>
        <time>2022-10-18T12:31:34.984Z</time>
      </trkpt>
      <trkpt lat="48.193070" lon="11.886948">
        <ele>500.789613</ele>
        <time>2022-10-18T12:32:44.729Z</time>
      </trkpt>
      <trkpt lat="48.192797" lon="11.886996">
        <ele>500.867225</ele>
        <time>2022-10-18T12:33:12.773Z</time>
      </trkpt>
      <trkpt lat="48.192318" lon="11.887104">
        <ele>500.900989</ele>
        <time>2022-10-18T12:34:01.401Z</time>
      </trkpt>
      <trkpt lat="48.192265" lon="11.887121">
        <ele>500.904766</ele>
        <time>2022-10-18T12:34:06.899Z</time>
      </trkpt>
      <trkpt lat="48.192110" lon="11.887184">
        <ele>500.915960</ele>
        <time>2022-10-18T12:34:23.039Z</time>
      </trkpt>
      <trkpt lat="48.192053" lon="11.887399">
        <ele>500.926712</ele>
        <time>2022-10-18T12:34:38.578Z</time>
      </trkpt>
      <trkpt lat="48.192034" lon="11.887862">
        <ele>500.948267</ele>
        <time>2022-10-18T12:35:09.840Z</time>
      </trkpt>
      <trkpt lat="48.191971" lon="11.887982">
        <ele>500.955364</ele>
        <time>2022-10-18T12:35:20.312Z</time>
      </trkpt>
      <trkpt lat="48.191563" lon="11.888041">
        <ele>501.139043</ele>
        <time>2022-10-18T12:36:02.047Z</time>
      </trkpt>
      <trkpt lat="48.190612" lon="11.888843">
        <ele>502.913297</ele>
        <time>2022-10-18T12:37:57.008Z</time>
      </trkpt>
      <trkpt lat="48.190190" lon="11.888924">
        <ele>503.605184</ele>
        <time>2022-10-18T12:38:43.874Z</time>
      </trkpt>
      <trkpt lat="48.190498" lon="11.890360">
        <ele>506.304096</ele>
        <time>2022-10-18T12:40:35.191Z</time>
      </trkpt>
      <trkpt lat="48.190457" lon="11.890441">
        <ele>506.501960</ele>
        <time>2022-10-18T12:40:42.728Z</time>
      </trkpt>
      <trkpt lat="48.190285" lon="11.890543">
        <ele>507.041713</ele>
        <time>2022-10-18T12:41:03.453Z</time>
      </trkpt>
      <trkpt lat="48.189863" lon="11.890719">
        <ele>508.319957</ele>
        <time>2022-10-18T12:41:52.879Z</time>
      </trkpt>
      <trkpt lat="48.189662" lon="11.890710">
        <ele>508.906800</ele>
        <time>2022-10-18T12:42:14.931Z</time>
      </trkpt>
      <trkpt lat="48.189419" lon="11.890580">
        <ele>509.114595</ele>
        <time>2022-10-18T12:42:43.097Z</time>
      </trkpt>
      <trkpt lat="48.189358" lon="11.890621">
        <ele>509.100594</ele>
        <time>2022-10-18T12:42:49.991Z</time>
      </trkpt>
      <trkpt lat="48.189007" lon="11.891358">
        <ele>508.974121</ele>
        <time>2022-10-18T12:43:51.755Z</time>
      </trkpt>
      <trkpt lat="48.188867" lon="11.891539">
        <ele>508.935409</ele>
        <time>2022-10-18T12:44:10.583Z</time>
      </trkpt>
      <trkpt lat="48.188788" lon="11.891540">
        <ele>508.918862</ele>
        <time>2022-10-18T12:44:18.552Z</time>
      </trkpt>
      <trkpt lat="48.188867" lon="11.891539">
        <ele>508.902315</ele>
        <time>2022-10-18T12:44:26.677Z</time>
      </trkpt>
      <trkpt lat="48.188798" lon="11.891730">
        <ele>508.871980</ele>
        <time>2022-10-18T12:44:41.626Z</time>
      </trkpt>
      <trkpt lat="48.188659" lon="11.892807">
        <ele>508.075909</ele>
        <time>2022-10-18T12:45:57.987Z</time>
      </trkpt>
      <trkpt lat="48.188487" lon="11.893999">
        <ele>505.935435</ele>
        <time>2022-10-18T12:47:24.069Z</time>
      </trkpt>
      <trkpt lat="48.188435" lon="11.894409">
        <ele>505.202952</ele>
        <time>2022-10-18T12:47:53.544Z</time>
      </trkpt>
      <trkpt lat="48.188305" lon="11.894679">
        <ele>504.618425</ele>
        <time>2022-10-18T12:48:17.213Z</time>
      </trkpt>
      <trkpt lat="48.188182" lon="11.894846">
        <ele>504.181671</ele>
        <time>2022-10-18T12:48:34.727Z</time>
      </trkpt>
      <trkpt lat="48.187884" lon="11.895238">
        <ele>503.518873</ele>
        <time>2022-10-18T12:49:16.758Z</time>
      </trkpt>
      <trkpt lat="48.187799" lon="11.895507">
        <ele>503.217098</ele>
        <time>2022-10-18T12:49:37.615Z</time>
      </trkpt>
      <trkpt lat="48.187776" lon="11.895860">
        <ele>502.857541</ele>
        <time>2022-10-18T12:50:02.263Z</time>
      </trkpt>
      <trkpt lat="48.187846" lon="11.897112">
        <ele>501.583878</ele>
        <time>2022-10-18T12:51:27.620Z</time>
      </trkpt>
      <trkpt lat="48.187810" lon="11.897681">
        <ele>501.389501</ele>
        <time>2022-10-18T12:52:06.072Z</time>
      </trkpt>
      <trkpt lat="48.187772" lon="11.897689">
        <ele>501.406048</ele>
        <time>2022-10-18T12:52:10.032Z</time>
      </trkpt>
      <trkpt lat="48.186978" lon="11.897861">
        <ele>501.751993</ele>
        <time>2022-10-18T12:53:30.457Z</time>
      </trkpt>
      <trkpt lat="48.186863" lon="11.897895">
        <ele>501.802538</ele>
        <time>2022-10-18T12:53:42.483Z</time>
      </trkpt>
      <trkpt lat="48.186978" lon="11.897861">
        <ele>501.853083</ele>
        <time>2022-10-18T12:53:54.422Z</time>
      </trkpt>
      <trkpt lat="48.187154" lon="11.899651">
        <ele>503.627373</ele>
        <time>2022-10-18T12:56:02.060Z</time>
      </trkpt>
      <trkpt lat="48.187352" lon="11.901114">
        <ele>505.892195</ele>
        <time>2022-10-18T12:57:51.774Z</time>
      </trkpt>
      <trkpt lat="48.187753" lon="11.902432">
        <ele>507.336036</ele>
        <time>2022-10-18T12:59:36.326Z</time>
      </trkpt>
      <trkpt lat="48.188704" lon="11.905235">
        <ele>509.303306</ele>
        <time>2022-10-18T13:03:09.638Z</time>
      </trkpt>
      <trkpt lat="48.189003" lon="11.905943">
        <ele>509.620386</ele>
        <time>2022-10-18T13:04:06.517Z</time>
      </trkpt>
      <trkpt lat="48.188896" lon="11.906049">
        <ele>509.723448</ele>
        <time>2022-10-18T13:04:19.709Z</time>
      </trkpt>
      <trkpt lat="48.188775" lon="11.906167">
        <ele>509.956374</ele>
        <time>2022-10-18T13:04:34.550Z</time>
      </trkpt>
      <trkpt lat="48.188410" lon="11.906336">
        <ele>510.572875</ele>
        <time>2022-10-18T13:05:14.822Z</time>
      </trkpt>
      <trkpt lat="48.188069" lon="11.906350">
        <ele>511.123422</ele>
        <time>2022-10-18T13:05:51.466Z</time>
      </trkpt>
      <trkpt lat="48.187251" lon="11.906038">
        <ele>512.485609</ele>
        <time>2022-10-18T13:07:22.091Z</time>
      </trkpt>
      <trkpt lat="48.186809" lon="11.906038">
        <ele>512.825473</ele>
        <time>2022-10-18T13:08:08.952Z</time>
      </trkpt>
      <trkpt lat="48.186205" lon="11.904993">
        <ele>513.416296</ele>
        <time>2022-10-18T13:09:43.351Z</time>
      </trkpt>
      <trkpt lat="48.185511" lon="11.905039">
        <ele>513.622741</ele>
        <time>2022-10-18T13:10:53.162Z</time>
      </trkpt>
      <trkpt lat="48.184799" lon="11.904574">
        <ele>513.202295</ele>
        <time>2022-10-18T13:12:12.448Z</time>
      </trkpt>
      <trkpt lat="48.183561" lon="11.904409">
        <ele>512.355931</ele>
        <time>2022-10-18T13:14:17.905Z</time>
      </trkpt>
      <trkpt lat="48.182917" lon="11.904647">
        <ele>511.724666</ele>
        <time>2022-10-18T13:15:24.981Z</time>
      </trkpt>
      <trkpt lat="48.182348" lon="11.904983">
        <ele>511.142651</ele>
        <time>2022-10-18T13:16:27.720Z</time>
      </trkpt>
      <trkpt lat="48.182056" lon="11.903906">
        <ele>509.433426</ele>
        <time>2022-10-18T13:17:48.932Z</time>
      </trkpt>
      <trkpt lat="48.181565" lon="11.901494">
        <ele>506.045058</ele>
        <time>2022-10-18T13:20:46.532Z</time>
      </trkpt>
      <trkpt lat="48.181464" lon="11.901576">
        <ele>505.901274</ele>
        <time>2022-10-18T13:20:58.376Z</time>
      </trkpt>
      <trkpt lat="48.181074" lon="11.901892">
        <ele>505.346319</ele>
        <time>2022-10-18T13:21:43.816Z</time>
      </trkpt>
      <trkpt lat="48.180567" lon="11.902157">
        <ele>504.674145</ele>
        <time>2022-10-18T13:22:38.117Z</time>
      </trkpt>
      <trkpt lat="48.179790" lon="11.902452">
        <ele>504.833760</ele>
        <time>2022-10-18T13:23:59.622Z</time>
      </trkpt>
      <trkpt lat="48.179756" lon="11.902308">
        <ele>504.887155</ele>
        <time>2022-10-18T13:24:10.096Z</time>
      </trkpt>
      <trkpt lat="48.179673" lon="11.902261">
        <ele>504.933661</ele>
        <time>2022-10-18T13:24:19.169Z</time>
      </trkpt>
      <trkpt lat="48.179499" lon="11.902438">
        <ele>505.043874</ele>
        <time>2022-10-18T13:24:40.827Z</time>
      </trkpt>
      <trkpt lat="48.179290" lon="11.902531">
        <ele>505.158151</ele>
        <time>2022-10-18T13:25:03.193Z</time>
      </trkpt>
      <trkpt lat="48.178520" lon="11.902771">
        <ele>505.493903</ele>
        <time>2022-10-18T13:26:24.030Z</time>
      </trkpt>
      <trkpt lat="48.177636" lon="11.902949">
        <ele>505.700478</ele>
        <time>2022-10-18T13:27:54.204Z</time>
      </trkpt>
      <trkpt lat="48.177416" lon="11.902922">
        <ele>505.751602</ele>
        <time>2022-10-18T13:28:16.343Z</time>
      </trkpt>
      <trkpt lat="48.177137" lon="11.902639">
        <ele>505.829612</ele>
        <time>2022-10-18T13:28:50.136Z</time>
      </trkpt>
      <trkpt lat="48.175684" lon="11.900257">
        <ele>505.110199</ele>
        <time>2022-10-18T13:32:27.588Z</time>
      </trkpt>
      <trkpt lat="48.175649" lon="11.900200">
        <ele>505.101508</ele>
        <time>2022-10-18T13:32:33.049Z</time>
      </trkpt>
      <trkpt lat="48.176176" lon="11.899493">
        <ele>504.982563</ele>
        <time>2022-10-18T13:33:44.134Z</time>
      </trkpt>
      <trkpt lat="48.176442" lon="11.899027">
        <ele>504.913756</ele>
        <time>2022-10-18T13:34:25.212Z</time>
      </trkpt>
      <trkpt lat="48.176989" lon="11.898397">
        <ele>504.630220</ele>
        <time>2022-10-18T13:35:34.589Z</time>
      </trkpt>
      <trkpt lat="48.177011" lon="11.898247">
        <ele>504.560253</ele>
        <time>2022-10-18T13:35:44.903Z</time>
      </trkpt>
      <trkpt lat="48.177025" lon="11.898153">
        <ele>504.516376</ele>
        <time>2022-10-18T13:35:51.479Z</time>
      </trkpt>
      <trkpt lat="48.177034" lon="11.898048">
        <ele>504.468149</ele>
        <time>2022-10-18T13:35:58.635Z</time>
      </trkpt>
      <trkpt lat="48.177037" lon="11.897999">
        <ele>504.445733</ele>
        <time>2022-10-18T13:36:01.973Z</time>
      </trkpt>
      <trkpt lat="48.177082" lon="11.897693">
        <ele>504.302984</ele>
        <time>2022-10-18T13:36:23.180Z</time>
      </trkpt>
      <trkpt lat="48.177231" lon="11.896715">
        <ele>503.845971</ele>
        <time>2022-10-18T13:37:31.159Z</time>
      </trkpt>
      <trkpt lat="48.177408" lon="11.896456">
        <ele>503.677025</ele>
        <time>2022-10-18T13:37:56.468Z</time>
      </trkpt>
      <trkpt lat="48.177421" lon="11.896425">
        <ele>503.660343</ele>
        <time>2022-10-18T13:37:58.969Z</time>
      </trkpt>
      <trkpt lat="48.177529" lon="11.896127">
        <ele>503.482284</ele>
        <time>2022-10-18T13:38:22.089Z</time>
      </trkpt>
      <trkpt lat="48.177820" lon="11.895393">
        <ele>503.015546</ele>
        <time>2022-10-18T13:39:20.542Z</time>
      </trkpt>
      <trkpt lat="48.177838" lon="11.895360">
        <ele>502.992243</ele>
        <time>2022-10-18T13:39:23.458Z</time>
      </trkpt>
      <trkpt lat="48.178635" lon="11.894117">
        <ele>502.091486</ele>
        <time>2022-10-18T13:41:20.194Z</time>
      </trkpt>
      <trkpt lat="48.179263" lon="11.893015">
        <ele>501.631149</ele>
        <time>2022-10-18T13:42:57.475Z</time>
      </trkpt>
      <trkpt lat="48.180639" lon="11.890622">
        <ele>500.701706</ele>
        <time>2022-10-18T13:46:30.881Z</time>
      </trkpt>
      <trkpt lat="48.180653" lon="11.890598">
        <ele>500.692707</ele>
        <time>2022-10-18T13:46:32.992Z</time>
      </trkpt>
      <trkpt lat="48.180673" lon="11.890563">
        <ele>500.679698</ele>
        <time>2022-10-18T13:46:36.126Z</time>
      </trkpt>
      <trkpt lat="48.181096" lon="11.889838">
        <ele>500.641704</ele>
        <time>2022-10-18T13:47:40.569Z</time>
      </trkpt>
      <trkpt lat="48.181110" lon="11.889814">
        <ele>500.649719</ele>
        <time>2022-10-18T13:47:42.699Z</time>
      </trkpt>
      <trkpt lat="48.181824" lon="11.888590">
        <ele>501.058507</ele>
        <time>2022-10-18T13:49:32.716Z</time>
      </trkpt>
      <trkpt lat="48.181903" lon="11.888454">
        <ele>501.103846</ele>
        <time>2022-10-18T13:49:45.158Z</time>
      </trkpt>
      <trkpt lat="48.181727" lon="11.888326">
        <ele>501.177584</ele>
        <time>2022-10-18T13:50:05.146Z</time>
      </trkpt>
      <trkpt lat="48.181498" lon="11.887911">
        <ele>501.378552</ele>
        <time>2022-10-18T13:50:42.165Z</time>
      </trkpt>
      <trkpt lat="48.181387" lon="11.887545">
        <ele>501.543699</ele>
        <time>2022-10-18T13:51:09.789Z</time>
      </trkpt>
      <trkpt lat="48.181188" lon="11.886938">
        <ele>501.821519</ele>
        <time>2022-10-18T13:51:56.168Z</time>
      </trkpt>
      <trkpt lat="48.180942" lon="11.886415">
        <ele>502.084402</ele>
        <time>2022-10-18T13:52:39.917Z</time>
      </trkpt>
      <trkpt lat="48.180352" lon="11.885686">
        <ele>502.393829</ele>
        <time>2022-10-18T13:53:57.287Z</time>
      </trkpt>
      <trkpt lat="48.180100" lon="11.885548">
        <ele>502.446857</ele>
        <time>2022-10-18T13:54:24.424Z</time>
      </trkpt>
      <trkpt lat="48.179759" lon="11.885508">
        <ele>502.514467</ele>
        <time>2022-10-18T13:54:58.896Z</time>
      </trkpt>
      <trkpt lat="48.179579" lon="11.885487">
        <ele>502.550154</ele>
        <time>2022-10-18T13:55:16.988Z</time>
      </trkpt>
      <trkpt lat="48.179242" lon="11.885295">
        <ele>502.621412</ele>
        <time>2022-10-18T13:55:53.176Z</time>
      </trkpt>
      <trkpt lat="48.178849" lon="11.885725">
        <ele>502.713605</ele>
        <time>2022-10-18T13:56:42.112Z</time>
      </trkpt>
      <trkpt lat="48.178548" lon="11.884951">
        <ele>502.821179</ele>
        <time>2022-10-18T13:57:42.313Z</time>
      </trkpt>
      <trkpt lat="48.178519" lon="11.884749">
        <ele>502.845986</ele>
        <time>2022-10-18T13:57:56.274Z</time>
      </trkpt>
      <trkpt lat="48.178555" lon="11.884595">
        <ele>502.865578</ele>
        <time>2022-10-18T13:58:07.166Z</time>
      </trkpt>
      <trkpt lat="48.177893" lon="11.883146">
        <ele>503.302064</ele>
        <time>2022-10-18T14:00:04.887Z</time>
      </trkpt>
      <trkpt lat="48.177809" lon="11.883236">
        <ele>503.373363</ele>
        <time>2022-10-18T14:00:15.341Z</time>
      </trkpt>
      <trkpt lat="48.177893" lon="11.883146">
        <ele>503.444662</ele>
        <time>2022-10-18T14:00:25.876Z</time>
      </trkpt>
      <trkpt lat="48.178636" lon="11.882328">
        <ele>504.081238</ele>
        <time>2022-10-18T14:02:01.272Z</time>
      </trkpt>
      <trkpt lat="48.178744" lon="11.882057">
        <ele>504.226631</ele>
        <time>2022-10-18T14:02:23.148Z</time>
      </trkpt>
      <trkpt lat="48.179013" lon="11.881590">
        <ele>504.434084</ele>
        <time>2022-10-18T14:03:06.002Z</time>
      </trkpt>
      <trkpt lat="48.179119" lon="11.881424">
        <ele>504.510034</ele>
        <time>2022-10-18T14:03:21.654Z</time>
      </trkpt>
      <trkpt lat="48.179307" lon="11.881165">
        <ele>504.636545</ele>
        <time>2022-10-18T14:03:48.059Z</time>
      </trkpt>
      <trkpt lat="48.179912" lon="11.879986">
        <ele>505.128151</ele>
        <time>2022-10-18T14:05:28.269Z</time>
      </trkpt>
      <trkpt lat="48.180655" lon="11.880274">
        <ele>504.499032</ele>
        <time>2022-10-18T14:06:45.807Z</time>
      </trkpt>
      <trkpt lat="48.180740" lon="11.880307">
        <ele>504.426344</ele>
        <time>2022-10-18T14:06:55.076Z</time>
      </trkpt>
      <trkpt lat="48.180867" lon="11.880274">
        <ele>504.319639</ele>
        <time>2022-10-18T14:07:08.046Z</time>
      </trkpt>
      <trkpt lat="48.181025" lon="11.879827">
        <ele>504.040367</ele>
        <time>2022-10-18T14:07:42.717Z</time>
      </trkpt>
      <trkpt lat="48.181413" lon="11.877491">
        <ele>502.360897</ele>
        <time>2022-10-18T14:10:27.343Z</time>
      </trkpt>
      <trkpt lat="48.181276" lon="11.877436">
        <ele>502.199223</ele>
        <time>2022-10-18T14:10:41.835Z</time>
      </trkpt>
      <trkpt lat="48.181413" lon="11.877491">
        <ele>502.037548</ele>
        <time>2022-10-18T14:10:56.317Z</time>
      </trkpt>
      <trkpt lat="48.182790" lon="11.877993">
        <ele>500.524165</ele>
        <time>2022-10-18T14:13:21.454Z</time>
      </trkpt>
      <trkpt lat="48.184253" lon="11.877671">
        <ele>499.227783</ele>
        <time>2022-10-18T14:15:52.481Z</time>
      </trkpt>
      <trkpt lat="48.184873" lon="11.877669">
        <ele>498.795471</ele>
        <time>2022-10-18T14:16:55.400Z</time>
      </trkpt>
      <trkpt lat="48.186415" lon="11.878091">
        <ele>498.241314</ele>
        <time>2022-10-18T14:19:33.137Z</time>
      </trkpt>
      <trkpt lat="48.187562" lon="11.878359">
        <ele>498.056557</ele>
        <time>2022-10-18T14:21:29.407Z</time>
      </trkpt>
      <trkpt lat="48.189264" lon="11.878599">
        <ele>497.896159</ele>
        <time>2022-10-18T14:24:20.848Z</time>
      </trkpt>
      <trkpt lat="48.190296" lon="11.879096">
        <ele>497.773697</ele>
        <time>2022-10-18T14:26:09.746Z</time>
      </trkpt>
      <trkpt lat="48.190299" lon="11.879059">
        <ele>497.770889</ele>
        <time>2022-10-18T14:26:12.238Z</time>
      </trkpt>
      <trkpt lat="48.190303" lon="11.879012">
        <ele>497.767320</ele>
        <time>2022-10-18T14:26:15.407Z</time>
      </trkpt>
      <trkpt lat="48.190299" lon="11.878944">
        <ele>497.762178</ele>
        <time>2022-10-18T14:26:20.029Z</time>
      </trkpt>
      <trkpt lat="48.190243" lon="11.878669">
        <ele>497.740520</ele>
        <time>2022-10-18T14:26:39.236Z</time>
      </trkpt>
      <trkpt lat="48.190183" lon="11.878377">
        <ele>497.863188</ele>
        <time>2022-10-18T14:26:59.633Z</time>
      </trkpt>
      <trkpt lat="48.190246" lon="11.877136">
        <ele>498.575890</ele>
        <time>2022-10-18T14:28:23.193Z</time>
      </trkpt>
      <trkpt lat="48.190485" lon="11.874824">
        <ele>501.101440</ele>
        <time>2022-10-18T14:31:09.008Z</time>
      </trkpt>
      <trkpt lat="48.190554" lon="11.874214">
        <ele>502.116072</ele>
        <time>2022-10-18T14:31:54.433Z</time>
      </trkpt>
      <trkpt lat="48.190587" lon="11.873591">
        <ele>503.140944</ele>
        <time>2022-10-18T14:32:40.679Z</time>
      </trkpt>
      <trkpt lat="48.190680" lon="11.871935">
        <ele>505.543556</ele>
        <time>2022-10-18T14:34:43.321Z</time>
      </trkpt>
      <trkpt lat="48.191091" lon="11.871934">
        <ele>506.403706</ele>
        <time>2022-10-18T14:35:27.346Z</time>
      </trkpt>
      <trkpt lat="48.191482" lon="11.871850">
        <ele>507.230348</ele>
        <time>2022-10-18T14:36:08.336Z</time>
      </trkpt>
      <trkpt lat="48.191607" lon="11.871917">
        <ele>507.468096</ele>
        <time>2022-10-18T14:36:21.881Z</time>
      </trkpt>
      <trkpt lat="48.191625" lon="11.871831">
        <ele>507.468096</ele>
        <time>2022-10-18T14:36:27.964Z</time>
      </trkpt>
      <trkpt lat="48.191705" lon="11.871782">
        <ele>507.468096</ele>
        <time>2022-10-18T14:36:36.769Z</time>
      </trkpt>
      <trkpt lat="48.191993" lon="11.871679">
        <ele>507.468096</ele>
        <time>2022-10-18T14:37:06.605Z</time>
      </trkpt>
      <trkpt lat="48.192347" lon="11.871574">
        <ele>507.468096</ele>
        <time>2022-10-18T14:37:42.840Z</time>
      </trkpt>
      <trkpt lat="48.192391" lon="11.871561">
        <ele>507.468096</ele>
        <time>2022-10-18T14:37:47.344Z</time>
      </trkpt>
      <trkpt lat="48.192380" lon="11.871445">
        <ele>507.468096</ele>
        <time>2022-10-18T14:37:55.155Z</time>
      </trkpt>
      <trkpt lat="48.192578" lon="11.871532">
        <ele>507.468096</ele>
        <time>2022-10-18T14:38:16.054Z</time>
      </trkpt>
      <trkpt lat="48.192936" lon="11.871727">
        <ele>507.468096</ele>
        <time>2022-10-18T14:38:54.693Z</time>
      </trkpt>
      <trkpt lat="48.193180" lon="11.872003">
        <ele>507.468096</ele>
        <time>2022-10-18T14:39:25.717Z</time>
      </trkpt>
      <trkpt lat="48.193344" lon="11.872239">
        <ele>507.468096</ele>
        <time>2022-10-18T14:39:48.845Z</time>
      </trkpt>
    </trkseg>
  </trk>
</gpx>